CheckWX is a tool to help pilots better visualize weather data.  It is not intended as a substitute for an official pre-flight weather briefing.

07:06:19 UTC

LTAV TAF
Sivrihisar Airport
Sivrihisar, Turkey
TAF LTAV 160440Z 1606/1615 VRB02KT 9999 SCT040 SCT100 PROB30 TEMPO 1611/1615 30015KT -TSRA FEW025CB BKN030

Jun-16@
06:00 UTC

Jun-16 @ 06:00 UTC

Jun-16@
15:00 UTC

Jun-16 @ 15:00 UTC

TAF LTAV 160440Z 1606/1615 VRB02KT 9999 SCT040 SCT100
Wind
  • Variable at 2 KTS
Cloud Levels
  • Scattered at 4,000' AGL
  • Scattered at 10,000' AGL

Jun-16@
11:00 UTC

Jun-16 @ 11:00 UTC

Jun-16@
15:00 UTC

Jun-16 @ 15:00 UTC

PROB30 TEMPO 1611/1615 30015KT -TSRA FEW025CB BKN030

Temporary - 30% Likelihood

Temporary - 30% Likelihood during this time.

Wind
  • 300° at 15 KTS
Conditions
Light Thunderstorm, Light Rain
Cloud Levels
  • Few at 2,500' AGL
  • Broken at 3,000' AGL